Terminal Aerodrome Forecast
Issued by NWS

Home | Current Version | Previous Version | Graphics & Text | Print | Product List | Glossary On
Versions: 1 2 3 4 5 6 7 8 9 10 11 12 13 14 15 16 17 18
000
FTUS41 KCLE 191100
TAFFDY
TAF
KFDY 191120Z 1912/2012 30004KT P6SM SKC
     FM191500 27006KT P6SM SCT250
     FM192200 22008KT P6SM BKN250
     FM200200 20006KT P6SM BKN250
     FM200600 20007KT P6SM SCT100 BKN250
     FM200900 20009KT P6SM VCSH SCT050 OVC100=

USA.gov is the U.S. government's official web portal to all federal, state and local government web resources and services.